Time;durP1;ratioP1;P1;durP2;ratioP2;P2;SDS_P1;SDS_P2;PMS_P1;PMS_P2;Temp;Humidity;BMP_temperature;BMP_pressure;BME280_temperature;BME280_humidity;BME280_pressure;Samples;Min_cycle;Max_cycle;Signal;HPM_P1;HPM_P2
2021/12/31 00:02:11;;;;;;;10.18;3.33;;;;;;;;;;6196277;23;20115;-92
2021/12/31 00:04:37;;;;;;;11.73;3.33;;;;;;;;;;6220947;23;20024;-93
2021/12/31 00:07:03;;;;;;;20.90;3.88;;;;;;;;;;6195971;23;20070;-93
2021/12/31 00:09:29;;;;;;;13.90;3.45;;;;;;;;;;6197693;23;20102;-94
2021/12/31 00:11:55;;;;;;;13.90;4.45;;;;;;;;;;6196539;23;20012;-94
2021/12/31 00:14:22;;;;;;;9.52;2.90;;;;;;;;;;6195985;23;20012;-92
2021/12/31 00:16:49;;;;;;;14.05;3.13;;;;;;;;;;6195454;23;20022;-92
2021/12/31 00:19:15;;;;;;;18.67;4.25;;;;;;;;;;6195111;23;20511;-91
2021/12/31 00:21:45;;;;;;;24.60;6.03;;;;;;;;;;6195165;23;20030;-92
2021/12/31 00:24:11;;;;;;;14.43;4.18;;;;;;;;;;6195746;23;20020;-93
2021/12/31 00:26:37;;;;;;;19.85;3.47;;;;;;;;;;6196229;23;20020;-92
2021/12/31 00:29:03;;;;;;;12.43;4.47;;;;;;;;;;6220872;23;20019;-93
2021/12/31 00:31:29;;;;;;;19.40;4.22;;;;;;;;;;6222512;23;20091;-92
2021/12/31 00:33:55;;;;;;;17.30;4.00;;;;;;;;;;6195972;23;20016;-92
2021/12/31 00:36:21;;;;;;;15.85;3.67;;;;;;;;;;6196731;23;20059;-91
2021/12/31 00:38:48;;;;;;;7.70;2.75;;;;;;;;;;6196741;23;20027;-91
2021/12/31 00:41:14;;;;;;;7.90;3.38;;;;;;;;;;6195300;23;20051;-91
2021/12/31 00:43:40;;;;;;;12.98;4.10;;;;;;;;;;6194930;23;20027;-91
2021/12/31 00:46:06;;;;;;;13.68;3.90;;;;;;;;;;6195344;23;20012;-91
2021/12/31 00:48:32;;;;;;;8.38;4.15;;;;;;;;;;6219805;23;20095;-91
2021/12/31 00:50:58;;;;;;;15.07;3.22;;;;;;;;;;6194995;23;20078;-90
2021/12/31 00:53:24;;;;;;;13.35;3.97;;;;;;;;;;6195149;23;20055;-91
2021/12/31 00:55:50;;;;;;;15.23;4.35;;;;;;;;;;6195281;23;20073;-91
2021/12/31 00:58:16;;;;;;;17.00;3.47;;;;;;;;;;6195405;23;20066;-91
2021/12/31 01:00:42;;;;;;;14.40;3.15;;;;;;;;;;6195303;23;20074;-91
2021/12/31 01:03:08;;;;;;;13.98;3.88;;;;;;;;;;6196443;23;20012;-91
2021/12/31 01:05:34;;;;;;;15.20;4.43;;;;;;;;;;6195162;23;20016;-91
2021/12/31 01:08:00;;;;;;;10.63;3.35;;;;;;;;;;6196545;23;20012;-91
2021/12/31 01:10:28;;;;;;;11.32;3.35;;;;;;;;;;6195513;23;20104;-91
2021/12/31 01:12:55;;;;;;;12.60;3.80;;;;;;;;;;6195894;23;20024;-92
2021/12/31 01:15:33;;;;;;;20.88;4.03;;;;;;;;;;6195176;23;20095;-91
2021/12/31 01:20:26;;;;;;;11.77;3.85;;;;;;;;;;6220708;23;20020;-91
2021/12/31 01:22:52;;;;;;;18.77;3.90;;;;;;;;;;6195508;23;20020;-91
2021/12/31 01:25:18;;;;;;;17.50;3.88;;;;;;;;;;6195243;23;20008;-91
2021/12/31 01:27:44;;;;;;;18.13;4.28;;;;;;;;;;6196104;23;20020;-91
2021/12/31 01:30:13;;;;;;;22.35;4.28;;;;;;;;;;6197042;23;20020;-91
2021/12/31 01:32:39;;;;;;;11.90;3.30;;;;;;;;;;6196928;23;20022;-90
2021/12/31 01:35:05;;;;;;;16.40;4.15;;;;;;;;;;6196839;23;20099;-90
2021/12/31 01:37:31;;;;;;;10.63;3.50;;;;;;;;;;6196918;23;20062;-91
2021/12/31 01:39:57;;;;;;;10.07;3.60;;;;;;;;;;6197257;23;20020;-90
2021/12/31 01:42:30;;;;;;;16.77;4.15;;;;;;;;;;6222335;23;20099;-91
2021/12/31 01:45:00;;;;;;;20.38;3.92;;;;;;;;;;6197231;23;20099;-91
2021/12/31 01:50:25;;;;;;;11.73;4.50;;;;;;;;;;6131740;23;20081;-93
2021/12/31 01:52:52;;;;;;;16.40;3.88;;;;;;;;;;6132010;23;20084;-91
2021/12/31 01:55:18;;;;;;;11.00;3.67;;;;;;;;;;6131881;23;20021;-90
2021/12/31 01:57:44;;;;;;;12.18;3.97;;;;;;;;;;6132295;23;20014;-90
2021/12/31 02:00:11;;;;;;;14.30;3.53;;;;;;;;;;6131393;23;20068;-91
2021/12/31 02:02:37;;;;;;;10.25;3.35;;;;;;;;;;6131311;23;20527;-92
2021/12/31 02:05:04;;;;;;;12.93;4.22;;;;;;;;;;6131461;23;20009;-91
2021/12/31 02:07:31;;;;;;;8.75;3.65;;;;;;;;;;6131503;23;20077;-91
2021/12/31 02:09:57;;;;;;;8.65;2.95;;;;;;;;;;6132749;23;20372;-90
2021/12/31 02:12:23;;;;;;;11.88;3.80;;;;;;;;;;6131469;23;20511;-91
2021/12/31 02:14:50;;;;;;;16.02;3.80;;;;;;;;;;6131968;23;20017;-91
2021/12/31 02:17:16;;;;;;;18.90;5.13;;;;;;;;;;6131337;23;20017;-92
2021/12/31 02:19:55;;;;;;;10.63;4.10;;;;;;;;;;6131587;23;20383;-92
2021/12/31 02:22:26;;;;;;;20.73;4.30;;;;;;;;;;6131932;23;20517;-91
2021/12/31 02:24:54;;;;;;;8.48;3.40;;;;;;;;;;6133018;23;20052;-92
2021/12/31 02:27:20;;;;;;;9.02;2.65;;;;;;;;;;6184191;23;20016;-92
2021/12/31 02:29:46;;;;;;;18.35;4.55;;;;;;;;;;6197338;23;20442;-94
2021/12/31 02:32:13;;;;;;;16.73;3.40;;;;;;;;;;6197345;23;20019;-93
2021/12/31 02:34:39;;;;;;;9.75;2.83;;;;;;;;;;6197290;23;20020;-92
2021/12/31 02:37:05;;;;;;;9.05;3.85;;;;;;;;;;6197323;23;20043;-95
2021/12/31 02:39:31;;;;;;;8.68;3.15;;;;;;;;;;6223354;23;20012;-93
2021/12/31 02:41:57;;;;;;;11.82;4.05;;;;;;;;;;6196712;23;20028;-93
2021/12/31 02:44:23;;;;;;;9.93;3.15;;;;;;;;;;6197877;23;20103;-93
2021/12/31 02:46:49;;;;;;;12.75;2.88;;;;;;;;;;6198312;23;20020;-92
2021/12/31 02:49:19;;;;;;;17.08;3.53;;;;;;;;;;6196927;23;20042;-94
2021/12/31 02:51:45;;;;;;;6.00;2.47;;;;;;;;;;6223655;23;20019;-93
2021/12/31 02:54:11;;;;;;;7.03;2.28;;;;;;;;;;6198331;23;20099;-93
2021/12/31 02:56:38;;;;;;;6.00;3.13;;;;;;;;;;6197189;23;20050;-93
2021/12/31 02:59:04;;;;;;;9.40;3.03;;;;;;;;;;6197281;23;20095;-93
2021/12/31 03:01:30;;;;;;;9.15;2.72;;;;;;;;;;6196433;23;20051;-93
2021/12/31 03:03:57;;;;;;;13.35;3.58;;;;;;;;;;6196805;23;20102;-94
2021/12/31 03:06:23;;;;;;;5.38;2.63;;;;;;;;;;6197127;23;20016;-92
2021/12/31 03:08:52;;;;;;;11.30;3.20;;;;;;;;;;6197091;23;20095;-93
2021/12/31 03:11:20;;;;;;;7.50;2.70;;;;;;;;;;6198346;23;20023;-94
2021/12/31 03:13:51;;;;;;;11.50;3.20;;;;;;;;;;6196718;23;20100;-94
2021/12/31 03:16:18;;;;;;;10.57;3.30;;;;;;;;;;6196892;23;20047;-93
2021/12/31 03:18:44;;;;;;;10.45;2.67;;;;;;;;;;6196100;23;20050;-92
2021/12/31 03:21:20;;;;;;;7.97;2.53;;;;;;;;;;6196034;23;20024;-91
2021/12/31 03:23:46;;;;;;;20.55;3.60;;;;;;;;;;6220779;23;20022;-91
2021/12/31 03:26:12;;;;;;;9.75;3.33;;;;;;;;;;6195790;23;20020;-91
2021/12/31 03:28:39;;;;;;;7.25;2.83;;;;;;;;;;6195086;23;20130;-91
2021/12/31 03:31:05;;;;;;;9.85;5.22;;;;;;;;;;6195405;23;20054;-91
2021/12/31 03:33:31;;;;;;;8.90;3.58;;;;;;;;;;6195418;23;20016;-92
2021/12/31 03:35:57;;;;;;;10.77;4.60;;;;;;;;;;6195396;23;20134;-92
2021/12/31 03:38:23;;;;;;;10.20;3.05;;;;;;;;;;6197170;23;20016;-91
2021/12/31 03:40:49;;;;;;;10.35;3.35;;;;;;;;;;6220544;23;20026;-91
2021/12/31 03:43:15;;;;;;;10.73;3.95;;;;;;;;;;6195755;23;20115;-91
2021/12/31 03:45:42;;;;;;;9.63;3.17;;;;;;;;;;6197072;23;20465;-91
2021/12/31 03:48:08;;;;;;;11.32;3.28;;;;;;;;;;6197558;23;20423;-92
2021/12/31 03:50:34;;;;;;;12.63;2.83;;;;;;;;;;6196574;23;20019;-91
2021/12/31 03:53:00;;;;;;;14.10;3.92;;;;;;;;;;6197312;23;20147;-92
2021/12/31 03:55:26;;;;;;;11.82;3.35;;;;;;;;;;6196444;23;20067;-92
2021/12/31 03:57:52;;;;;;;9.00;2.88;;;;;;;;;;6197659;23;20016;-92
2021/12/31 04:00:18;;;;;;;9.23;2.75;;;;;;;;;;6195534;23;20027;-89
2021/12/31 04:02:44;;;;;;;9.20;3.45;;;;;;;;;;6196429;23;20430;-91
2021/12/31 04:05:11;;;;;;;6.90;2.05;;;;;;;;;;6195303;23;20091;-92
2021/12/31 04:07:37;;;;;;;15.30;2.95;;;;;;;;;;6195361;23;20012;-91
2021/12/31 04:10:03;;;;;;;11.32;2.85;;;;;;;;;;6196416;23;20020;-91
2021/12/31 04:12:29;;;;;;;6.75;3.55;;;;;;;;;;6195287;23;20016;-91
2021/12/31 04:14:55;;;;;;;6.60;2.78;;;;;;;;;;6195203;23;20016;-91
2021/12/31 04:17:21;;;;;;;17.77;3.20;;;;;;;;;;6195139;23;20020;-91
2021/12/31 04:19:52;;;;;;;8.02;3.58;;;;;;;;;;6195370;23;20016;-91
2021/12/31 04:22:21;;;;;;;8.38;2.75;;;;;;;;;;6195612;23;20039;-91
2021/12/31 04:27:15;;;;;;;9.27;3.35;;;;;;;;;;6219824;23;20024;-90
2021/12/31 04:29:49;;;;;;;10.23;2.97;;;;;;;;;;6195258;23;20016;-91
2021/12/31 04:32:15;;;;;;;9.32;3.35;;;;;;;;;;6195081;23;20015;-91
2021/12/31 04:34:41;;;;;;;7.32;3.03;;;;;;;;;;6196630;23;20035;-92
2021/12/31 04:37:07;;;;;;;9.18;3.22;;;;;;;;;;6195216;23;20012;-92
2021/12/31 04:39:33;;;;;;;9.35;2.03;;;;;;;;;;6195399;23;20453;-92
2021/12/31 04:41:59;;;;;;;9.27;3.03;;;;;;;;;;6220905;23;20047;-92
2021/12/31 04:44:25;;;;;;;6.90;2.22;;;;;;;;;;6195427;23;20016;-91
2021/12/31 04:46:51;;;;;;;4.60;2.28;;;;;;;;;;6196983;23;20016;-94
2021/12/31 04:49:17;;;;;;;3.72;2.58;;;;;;;;;;6195190;23;20055;-92
2021/12/31 04:51:43;;;;;;;9.55;2.78;;;;;;;;;;6196382;23;20454;-92
2021/12/31 04:54:14;;;;;;;5.75;2.70;;;;;;;;;;6197072;23;20020;-90
2021/12/31 04:56:42;;;;;;;10.57;3.67;;;;;;;;;;6195782;23;20016;-92
2021/12/31 04:59:09;;;;;;;8.77;2.95;;;;;;;;;;6195091;23;20052;-92
2021/12/31 05:01:38;;;;;;;7.75;2.88;;;;;;;;;;6196962;23;20020;-91
2021/12/31 05:04:05;;;;;;;8.68;2.42;;;;;;;;;;6223077;23;20429;-91
2021/12/31 05:06:31;;;;;;;15.50;3.53;;;;;;;;;;6196941;23;20012;-91
2021/12/31 05:08:57;;;;;;;4.30;2.55;;;;;;;;;;6197007;23;20412;-92
2021/12/31 05:11:23;;;;;;;9.90;2.65;;;;;;;;;;6196701;23;20012;-89
2021/12/31 05:13:49;;;;;;;7.88;2.55;;;;;;;;;;6196719;23;20384;-90
2021/12/31 05:16:15;;;;;;;9.73;3.10;;;;;;;;;;6196871;23;20059;-89
2021/12/31 05:18:41;;;;;;;6.25;2.65;;;;;;;;;;6196944;23;20016;-89
2021/12/31 05:21:07;;;;;;;7.10;2.92;;;;;;;;;;6196681;23;20012;-90
2021/12/31 05:23:33;;;;;;;3.60;2.35;;;;;;;;;;6197786;23;20043;-90
2021/12/31 05:25:59;;;;;;;5.72;2.47;;;;;;;;;;6196017;23;20034;-90
2021/12/31 05:28:25;;;;;;;6.63;2.15;;;;;;;;;;6196342;23;20465;-90
2021/12/31 05:30:51;;;;;;;3.42;1.98;;;;;;;;;;6196679;23;20016;-90
2021/12/31 05:33:17;;;;;;;4.85;2.25;;;;;;;;;;6197006;23;20024;-90
2021/12/31 05:35:43;;;;;;;10.93;2.38;;;;;;;;;;6197046;23;20095;-90
2021/12/31 05:38:09;;;;;;;5.30;3.08;;;;;;;;;;6197764;23;20016;-90
2021/12/31 05:40:36;;;;;;;11.70;2.80;;;;;;;;;;6196620;23;20302;-91
2021/12/31 05:43:02;;;;;;;9.02;3.05;;;;;;;;;;6196652;23;20457;-90
2021/12/31 05:45:28;;;;;;;6.53;2.75;;;;;;;;;;6221728;23;20450;-90
2021/12/31 05:47:54;;;;;;;3.30;1.95;;;;;;;;;;6195997;23;20016;-90
2021/12/31 05:50:29;;;;;;;3.28;1.80;;;;;;;;;;6196181;23;20016;-90
2021/12/31 05:52:59;;;;;;;2.83;1.92;;;;;;;;;;6196780;23;20012;-90
2021/12/31 05:55:25;;;;;;;4.05;2.17;;;;;;;;;;6196635;23;20016;-90
2021/12/31 05:57:51;;;;;;;11.25;2.45;;;;;;;;;;6196390;23;20017;-90
2021/12/31 06:00:18;;;;;;;3.35;2.35;;;;;;;;;;6196460;23;20103;-89
2021/12/31 06:02:44;;;;;;;9.32;2.72;;;;;;;;;;6221213;23;20027;-89
2021/12/31 06:05:10;;;;;;;7.78;2.90;;;;;;;;;;6196286;23;20017;-89
2021/12/31 06:07:37;;;;;;;6.85;1.98;;;;;;;;;;6220691;23;20023;-91
2021/12/31 06:10:03;;;;;;;3.50;2.03;;;;;;;;;;6196955;23;20016;-91
2021/12/31 06:12:29;;;;;;;4.13;2.70;;;;;;;;;;6221438;23;20012;-91
2021/12/31 06:14:58;;;;;;;4.22;2.05;;;;;;;;;;6197000;23;20039;-91
2021/12/31 06:17:27;;;;;;;4.18;1.90;;;;;;;;;;6196739;23;20013;-93
2021/12/31 06:19:53;;;;;;;6.68;1.67;;;;;;;;;;6221342;23;20087;-92
2021/12/31 06:22:20;;;;;;;5.90;2.63;;;;;;;;;;6196926;23;20024;-92
2021/12/31 06:24:46;;;;;;;7.25;2.65;;;;;;;;;;6196617;23;20013;-93
2021/12/31 06:27:12;;;;;;;3.33;2.25;;;;;;;;;;6197103;23;20099;-92
2021/12/31 06:29:38;;;;;;;8.35;2.33;;;;;;;;;;6222545;23;20330;-91
2021/12/31 06:32:04;;;;;;;3.78;2.08;;;;;;;;;;6197134;23;20024;-91
2021/12/31 06:34:30;;;;;;;1.88;1.70;;;;;;;;;;6196305;23;20072;-92
2021/12/31 06:36:59;;;;;;;5.00;2.55;;;;;;;;;;6197736;23;20020;-91
2021/12/31 06:39:26;;;;;;;2.05;1.50;;;;;;;;;;6214355;23;20047;-91
2021/12/31 06:41:53;;;;;;;3.67;1.80;;;;;;;;;;6167547;23;20016;-92
2021/12/31 06:44:19;;;;;;;5.70;2.80;;;;;;;;;;6191199;23;20139;-92
2021/12/31 06:46:45;;;;;;;5.68;2.22;;;;;;;;;;6166352;23;20020;-91
2021/12/31 06:49:11;;;;;;;3.85;2.10;;;;;;;;;;6166039;23;20350;-91
2021/12/31 06:51:38;;;;;;;4.00;1.70;;;;;;;;;;6167308;23;20063;-91
2021/12/31 06:54:04;;;;;;;3.53;1.83;;;;;;;;;;6165855;23;20386;-90
2021/12/31 06:56:30;;;;;;;10.10;2.38;;;;;;;;;;6165620;23;20021;-90
2021/12/31 06:58:56;;;;;;;4.35;1.70;;;;;;;;;;6165558;23;20066;-91
2021/12/31 07:01:24;;;;;;;13.80;1.70;;;;;;;;;;6190146;23;20017;-90
2021/12/31 07:03:50;;;;;;;4.72;2.40;;;;;;;;;;6166202;23;20023;-90
2021/12/31 07:06:16;;;;;;;4.13;2.30;;;;;;;;;;6165517;23;20028;-91
2021/12/31 07:08:42;;;;;;;6.05;2.40;;;;;;;;;;6164947;23;20060;-92
2021/12/31 07:11:08;;;;;;;4.10;1.98;;;;;;;;;;6165738;23;20091;-91
2021/12/31 07:13:35;;;;;;;4.78;2.10;;;;;;;;;;6166019;23;20027;-91
2021/12/31 07:16:02;;;;;;;3.13;1.73;;;;;;;;;;6166787;23;20013;-91
2021/12/31 07:18:28;;;;;;;5.35;1.88;;;;;;;;;;6165591;23;20019;-92
2021/12/31 07:20:54;;;;;;;3.33;2.00;;;;;;;;;;6166133;23;20021;-91
2021/12/31 07:23:21;;;;;;;4.45;2.05;;;;;;;;;;6165703;23;20095;-89
2021/12/31 07:25:47;;;;;;;3.28;1.83;;;;;;;;;;6165495;23;20017;-90
2021/12/31 07:28:14;;;;;;;7.32;2.80;;;;;;;;;;6165317;23;20016;-90
2021/12/31 07:30:40;;;;;;;5.18;1.80;;;;;;;;;;6165676;23;20017;-90
2021/12/31 07:33:06;;;;;;;1.63;1.20;;;;;;;;;;6165583;23;20026;-90
2021/12/31 07:35:35;;;;;;;4.13;1.98;;;;;;;;;;6165491;23;20470;-91
2021/12/31 07:38:01;;;;;;;5.93;2.15;;;;;;;;;;6165504;23;20454;-90
2021/12/31 07:40:38;;;;;;;2.85;1.83;;;;;;;;;;6208562;23;20321;-90
2021/12/31 07:43:07;;;;;;;5.10;1.90;;;;;;;;;;6220626;23;20446;-90
2021/12/31 07:45:33;;;;;;;4.10;2.13;;;;;;;;;;6220434;23;20052;-89
2021/12/31 07:48:00;;;;;;;3.47;2.28;;;;;;;;;;6245649;22;20024;-90
2021/12/31 07:50:26;;;;;;;6.35;1.90;;;;;;;;;;6245732;23;20020;-89
2021/12/31 07:52:52;;;;;;;4.07;2.00;;;;;;;;;;6220225;23;20027;-91
2021/12/31 07:55:18;;;;;;;2.95;2.22;;;;;;;;;;6220381;23;20016;-91
2021/12/31 07:57:44;;;;;;;3.50;2.20;;;;;;;;;;6247487;23;20016;-92
2021/12/31 08:00:10;;;;;;;2.60;2.10;;;;;;;;;;6220800;23;20012;-91
2021/12/31 08:02:36;;;;;;;2.35;2.08;;;;;;;;;;6220687;23;20012;-90
2021/12/31 08:05:02;;;;;;;5.15;2.20;;;;;;;;;;6220576;23;20016;-91
2021/12/31 08:07:28;;;;;;;4.20;2.38;;;;;;;;;;6220127;23;20018;-90
2021/12/31 08:09:54;;;;;;;8.20;2.67;;;;;;;;;;6220180;23;20161;-92
2021/12/31 08:12:20;;;;;;;2.60;1.63;;;;;;;;;;6220017;23;20012;-91
2021/12/31 08:14:47;;;;;;;4.13;1.83;;;;;;;;;;6220011;23;20020;-91
2021/12/31 08:17:13;;;;;;;5.20;2.20;;;;;;;;;;6219693;23;20066;-91
2021/12/31 08:19:39;;;;;;;3.72;2.22;;;;;;;;;;6219876;23;20058;-91
2021/12/31 08:22:05;;;;;;;6.22;2.20;;;;;;;;;;6220348;23;20013;-91
2021/12/31 08:24:31;;;;;;;3.78;1.92;;;;;;;;;;6219901;23;20085;-91
2021/12/31 08:26:57;;;;;;;5.40;2.28;;;;;;;;;;6245337;23;20012;-91
2021/12/31 08:29:23;;;;;;;7.63;2.28;;;;;;;;;;6220681;23;20055;-90
2021/12/31 08:31:49;;;;;;;3.58;2.95;;;;;;;;;;6245335;23;20483;-92
2021/12/31 08:34:15;;;;;;;5.72;2.58;;;;;;;;;;6220433;23;20093;-92
2021/12/31 08:36:41;;;;;;;5.00;2.20;;;;;;;;;;6220996;23;20023;-92
2021/12/31 08:39:09;;;;;;;5.47;2.72;;;;;;;;;;6245978;23;20488;-92
2021/12/31 08:41:36;;;;;;;5.00;2.55;;;;;;;;;;6245906;23;20028;-90
2021/12/31 08:44:02;;;;;;;8.50;2.92;;;;;;;;;;6221823;23;20023;-89
2021/12/31 08:46:28;;;;;;;2.55;1.67;;;;;;;;;;6220793;22;20165;-90
2021/12/31 08:48:54;;;;;;;6.57;2.50;;;;;;;;;;6220817;23;20055;-88
2021/12/31 08:51:21;;;;;;;4.32;2.88;;;;;;;;;;6220247;23;20012;-90
2021/12/31 08:53:47;;;;;;;3.35;1.85;;;;;;;;;;6220734;23;20012;-90
2021/12/31 08:56:13;;;;;;;3.97;2.28;;;;;;;;;;6245552;23;20043;-90
2021/12/31 08:58:39;;;;;;;5.85;2.55;;;;;;;;;;6221117;23;20020;-90
2021/12/31 09:01:05;;;;;;;6.70;2.08;;;;;;;;;;6220102;23;20376;-90
2021/12/31 09:03:31;;;;;;;5.00;2.70;;;;;;;;;;6220682;23;20349;-90
2021/12/31 09:05:57;;;;;;;4.00;2.92;;;;;;;;;;6221415;23;20031;-90
2021/12/31 09:08:23;;;;;;;5.38;2.78;;;;;;;;;;6219796;23;20070;-90
2021/12/31 09:10:50;;;;;;;3.22;2.05;;;;;;;;;;6219849;23;20020;-90
2021/12/31 09:13:16;;;;;;;4.72;2.90;;;;;;;;;;6245702;23;20584;-90
2021/12/31 09:15:42;;;;;;;6.28;2.40;;;;;;;;;;6219798;23;20023;-90
2021/12/31 09:18:08;;;;;;;8.55;2.90;;;;;;;;;;6219780;23;20391;-90
2021/12/31 09:20:34;;;;;;;5.80;2.35;;;;;;;;;;6220280;23;20385;-90
2021/12/31 09:23:02;;;;;;;4.60;2.38;;;;;;;;;;6220141;23;20016;-90
2021/12/31 09:25:28;;;;;;;7.70;2.92;;;;;;;;;;6220129;23;20381;-90
2021/12/31 09:27:54;;;;;;;7.30;2.92;;;;;;;;;;6220181;23;20024;-88
2021/12/31 09:30:20;;;;;;;7.22;2.88;;;;;;;;;;6244988;23;20016;-90
2021/12/31 09:32:46;;;;;;;5.05;2.25;;;;;;;;;;6220204;23;20022;-90
2021/12/31 09:35:12;;;;;;;7.50;2.88;;;;;;;;;;6220338;23;20020;-90
2021/12/31 09:37:39;;;;;;;11.27;3.25;;;;;;;;;;6220243;23;20489;-91
2021/12/31 09:40:06;;;;;;;7.13;2.53;;;;;;;;;;6220041;23;20016;-90
2021/12/31 09:42:32;;;;;;;3.55;2.97;;;;;;;;;;6220265;23;20024;-90
2021/12/31 09:44:58;;;;;;;4.38;2.67;;;;;;;;;;6220903;23;20472;-91
2021/12/31 09:47:25;;;;;;;5.15;2.88;;;;;;;;;;6221542;23;20115;-91
2021/12/31 09:49:51;;;;;;;8.48;3.63;;;;;;;;;;6196183;23;20016;-90
2021/12/31 09:52:17;;;;;;;9.40;2.92;;;;;;;;;;6222693;23;20012;-91
2021/12/31 09:54:44;;;;;;;3.88;2.05;;;;;;;;;;6247538;23;20087;-91
2021/12/31 09:57:14;;;;;;;6.70;3.20;;;;;;;;;;6222612;23;20012;-91
2021/12/31 09:59:41;;;;;;;5.90;3.00;;;;;;;;;;6222821;23;20434;-92
2021/12/31 10:02:09;;;;;;;11.23;3.60;;;;;;;;;;6222790;23;20358;-93
2021/12/31 10:04:53;;;;;;;4.57;2.83;;;;;;;;;;6223178;23;20012;-92
2021/12/31 10:07:21;;;;;;;6.28;3.22;;;;;;;;;;6222493;23;20458;-93
2021/12/31 10:10:06;;;;;;;4.82;2.55;;;;;;;;;;6222190;23;20020;-93
2021/12/31 10:12:49;;;;;;;6.10;2.85;;;;;;;;;;6224107;23;20102;-92
2021/12/31 10:15:17;;;;;;;4.70;2.67;;;;;;;;;;6222449;23;20048;-93
2021/12/31 10:17:43;;;;;;;8.35;2.60;;;;;;;;;;6222476;23;20015;-93
2021/12/31 10:20:10;;;;;;;7.22;3.00;;;;;;;;;;6223264;23;20055;-92
2021/12/31 10:22:36;;;;;;;9.90;3.72;;;;;;;;;;6223229;23;20012;-93
2021/12/31 10:25:02;;;;;;;9.63;3.40;;;;;;;;;;6222613;23;20016;-92
2021/12/31 10:27:29;;;;;;;9.40;3.95;;;;;;;;;;6221532;23;20017;-91
2021/12/31 10:29:58;;;;;;;4.70;3.17;;;;;;;;;;6222597;23;20098;-92
2021/12/31 10:32:25;;;;;;;8.82;3.38;;;;;;;;;;6222088;23;20437;-92
2021/12/31 10:34:51;;;;;;;7.57;4.20;;;;;;;;;;6221577;23;20480;-93
2021/12/31 10:37:26;;;;;;;14.35;3.92;;;;;;;;;;6222971;23;20081;-92
2021/12/31 10:39:56;;;;;;;8.00;3.40;;;;;;;;;;6221554;23;20012;-92
2021/12/31 10:42:27;;;;;;;6.68;2.95;;;;;;;;;;6223082;23;20016;-91
2021/12/31 10:44:53;;;;;;;8.02;3.33;;;;;;;;;;6221573;23;20016;-92
2021/12/31 10:47:24;;;;;;;11.05;3.35;;;;;;;;;;6222890;23;20028;-93
2021/12/31 10:49:56;;;;;;;7.75;2.90;;;;;;;;;;6221573;23;20019;-92
2021/12/31 10:52:29;;;;;;;7.57;3.45;;;;;;;;;;6222970;23;20044;-93
2021/12/31 10:55:17;;;;;;;9.85;3.83;;;;;;;;;;6221494;23;20091;-93
2021/12/31 10:57:43;;;;;;;8.35;3.33;;;;;;;;;;6222950;23;20016;-92
2021/12/31 11:00:10;;;;;;;8.77;3.58;;;;;;;;;;6222437;23;20454;-92
2021/12/31 11:02:37;;;;;;;8.07;3.05;;;;;;;;;;6248580;23;20368;-93
2021/12/31 11:05:04;;;;;;;9.25;3.78;;;;;;;;;;6223240;23;20066;-93
2021/12/31 11:07:30;;;;;;;14.30;4.38;;;;;;;;;;6222065;23;20091;-93
2021/12/31 11:09:57;;;;;;;7.65;3.47;;;;;;;;;;6221648;23;20016;-94
2021/12/31 11:12:24;;;;;;;13.52;5.15;;;;;;;;;;6221978;23;20445;-93
2021/12/31 11:14:50;;;;;;;5.20;3.88;;;;;;;;;;6221916;23;20126;-94
2021/12/31 11:17:17;;;;;;;10.50;4.30;;;;;;;;;;6222446;23;20012;-93
2021/12/31 11:19:44;;;;;;;10.88;4.25;;;;;;;;;;6222494;23;20024;-93
2021/12/31 11:22:11;;;;;;;11.40;3.83;;;;;;;;;;6225543;23;20016;-95
2021/12/31 11:24:38;;;;;;;6.22;3.83;;;;;;;;;;6230737;23;20055;-93
2021/12/31 11:27:26;;;;;;;10.77;3.67;;;;;;;;;;6230897;23;20016;-95
2021/12/31 11:29:52;;;;;;;7.32;4.35;;;;;;;;;;6231866;23;20023;-96
2021/12/31 11:32:41;;;;;;;17.58;4.72;;;;;;;;;;6232233;23;20046;-96
2021/12/31 11:35:30;;;;;;;6.47;3.40;;;;;;;;;;6223532;23;20027;-93
2021/12/31 11:37:56;;;;;;;10.45;5.15;;;;;;;;;;6225863;23;20020;-96
2021/12/31 11:40:26;;;;;;;5.65;3.45;;;;;;;;;;6225155;23;20418;-95
2021/12/31 11:43:11;;;;;;;9.38;4.63;;;;;;;;;;6223635;23;20024;-96
2021/12/31 11:45:37;;;;;;;8.48;4.28;;;;;;;;;;6220628;23;20548;-93
2021/12/31 11:48:23;;;;;;;9.50;4.10;;;;;;;;;;6218698;23;20016;-95
2021/12/31 11:51:05;;;;;;;8.20;3.80;;;;;;;;;;6219655;23;20016;-95
2021/12/31 11:53:31;;;;;;;9.68;4.10;;;;;;;;;;6221479;23;20020;-96
2021/12/31 11:55:57;;;;;;;9.77;4.00;;;;;;;;;;6220824;23;20434;-94
2021/12/31 11:58:40;;;;;;;7.68;4.20;;;;;;;;;;6220268;23;20015;-96
2021/12/31 12:01:25;;;;;;;4.63;2.55;;;;;;;;;;6220872;23;20051;-94
2021/12/31 12:04:11;;;;;;;4.97;3.58;;;;;;;;;;6222987;23;20059;-93
2021/12/31 12:06:57;;;;;;;6.45;4.18;;;;;;;;;;6221418;23;20442;-93
2021/12/31 12:09:24;;;;;;;5.82;3.17;;;;;;;;;;6220104;23;20012;-94
2021/12/31 12:12:03;;;;;;;6.72;3.78;;;;;;;;;;6219479;23;20074;-94
2021/12/31 12:14:43;;;;;;;6.60;2.95;;;;;;;;;;6223490;23;20081;-96
2021/12/31 12:17:10;;;;;;;8.95;3.50;;;;;;;;;;6222612;23;20118;-96
2021/12/31 12:19:51;;;;;;;8.65;4.05;;;;;;;;;;6221774;23;20022;-94
2021/12/31 12:22:24;;;;;;;9.30;4.60;;;;;;;;;;6221919;23;20016;-93
2021/12/31 12:24:51;;;;;;;2.60;2.08;;;;;;;;;;6220598;23;20027;-94
2021/12/31 12:27:19;;;;;;;7.75;3.00;;;;;;;;;;6244861;23;20016;-94
2021/12/31 12:29:45;;;;;;;12.70;3.70;;;;;;;;;;6218375;23;20016;-94
2021/12/31 12:32:12;;;;;;;5.40;3.25;;;;;;;;;;6219321;23;20018;-94
2021/12/31 12:34:38;;;;;;;7.72;3.78;;;;;;;;;;6220500;23;20454;-91
2021/12/31 12:37:04;;;;;;;6.85;3.72;;;;;;;;;;6247029;23;20095;-93
2021/12/31 12:39:31;;;;;;;8.18;3.63;;;;;;;;;;6221526;23;20020;-94
2021/12/31 12:41:58;;;;;;;5.07;3.00;;;;;;;;;;6246933;23;20094;-92
2021/12/31 12:44:24;;;;;;;7.20;3.05;;;;;;;;;;6221430;23;20019;-91
2021/12/31 12:46:57;;;;;;;4.35;2.80;;;;;;;;;;6244742;22;20024;-91
2021/12/31 12:49:24;;;;;;;7.20;3.30;;;;;;;;;;6220140;23;20046;-90
2021/12/31 12:51:51;;;;;;;4.47;3.50;;;;;;;;;;6220411;23;20020;-93
2021/12/31 12:54:23;;;;;;;8.00;3.42;;;;;;;;;;6221440;23;20043;-93
2021/12/31 12:56:53;;;;;;;4.45;2.90;;;;;;;;;;6220237;23;20075;-93
2021/12/31 12:59:21;;;;;;;4.22;2.72;;;;;;;;;;6246280;23;20020;-94
2021/12/31 13:01:48;;;;;;;5.40;3.03;;;;;;;;;;6222118;23;20015;-90
2021/12/31 13:04:15;;;;;;;6.82;3.67;;;;;;;;;;6221187;23;20024;-92
2021/12/31 13:06:45;;;;;;;3.35;2.22;;;;;;;;;;6246833;23;20092;-92
2021/12/31 13:09:15;;;;;;;2.55;2.25;;;;;;;;;;6220675;23;20048;-92
2021/12/31 13:11:41;;;;;;;7.47;3.00;;;;;;;;;;6246146;23;20016;-92
2021/12/31 13:14:22;;;;;;;6.80;2.55;;;;;;;;;;6247779;23;20030;-94
2021/12/31 13:16:52;;;;;;;9.18;3.25;;;;;;;;;;6246676;23;20012;-93
2021/12/31 13:19:28;;;;;;;8.60;3.30;;;;;;;;;;6222210;23;20027;-90
2021/12/31 13:22:03;;;;;;;5.97;2.75;;;;;;;;;;6221845;23;20016;-89
2021/12/31 13:24:29;;;;;;;5.82;3.38;;;;;;;;;;6223301;23;20024;-90
2021/12/31 13:26:57;;;;;;;3.85;2.80;;;;;;;;;;6248464;23;20051;-91
2021/12/31 13:29:31;;;;;;;5.78;2.72;;;;;;;;;;6248309;23;20087;-90
2021/12/31 13:32:07;;;;;;;;;;;11.30;99.90;;;;;;6224212;23;20074;-91
2021/12/31 13:34:40;;;;;;;7.55;2.70;;;;;;;;;;6223312;23;20357;-92
2021/12/31 13:37:07;;;;;;;6.60;3.00;;;;;;;;;;6220956;23;20016;-91
2021/12/31 13:39:39;;;;;;;8.27;3.08;;;;;;;;;;6245163;23;20016;-90
2021/12/31 13:42:06;;;;;;;6.68;3.80;;;;;;;;;;6197417;23;20095;-91
2021/12/31 13:44:32;;;;;;;6.30;3.33;;;;;;;;;;6246948;23;20016;-89
2021/12/31 13:47:12;;;;;;;9.27;3.25;;;;;;;;;;6247659;22;20020;-91
2021/12/31 13:49:39;;;;;;;8.38;4.20;;;;;;;;;;6221836;23;20016;-90
2021/12/31 13:52:17;;;;;;;7.78;4.05;;;;;;;;;;6248021;23;20043;-90
2021/12/31 13:54:44;;;;;;;10.88;4.97;;;;;;;;;;6222215;23;20020;-90
2021/12/31 13:57:31;;;;;;;13.27;4.22;;;11.40;99.90;;;;;;6222424;23;20445;-89
2021/12/31 14:00:08;;;;;;;11.88;3.92;;;;;;;;;;6247344;23;20466;-89
2021/12/31 14:02:34;;;;;;;16.40;4.05;;;;;;;;;;6222269;23;20334;-91
2021/12/31 14:05:03;;;;;;;13.93;4.45;;;;;;;;;;6222155;23;20027;-90
2021/12/31 14:07:35;;;;;;;17.33;4.72;;;;;;;;;;6221817;23;20118;-91
2021/12/31 14:10:03;;;;;;;8.88;4.22;;;;;;;;;;6221668;23;20020;-89
2021/12/31 14:12:29;;;;;;;8.90;3.67;;;;;;;;;;6222912;23;20090;-90
2021/12/31 14:14:55;;;;;;;13.73;5.93;;;;;;;;;;6222474;23;20453;-92
2021/12/31 14:17:21;;;;;;;17.05;5.60;;;;;;;;;;6222234;23;20047;-90
2021/12/31 14:19:47;;;;;;;18.33;5.03;;;;;;;;;;6247207;23;20016;-91
2021/12/31 14:22:13;;;;;;;10.10;4.50;;;;;;;;;;6221876;23;20016;-91
2021/12/31 14:24:40;;;;;;;11.82;5.25;;;;;;;;;;6247939;23;20023;-90
2021/12/31 14:27:06;;;;;;;27.30;6.57;;;;;;;;;;6221200;23;20514;-89
2021/12/31 14:29:33;;;;;;;19.15;5.57;;;;;;;;;;6222015;23;20020;-92
2021/12/31 14:32:05;;;;;;;16.67;5.80;;;;;;;;;;6197556;23;20031;-92
2021/12/31 14:34:33;;;;;;;22.08;4.97;;;;;;;;;;6221495;23;20197;-89
2021/12/31 14:37:06;;;;;;;17.52;5.47;;;;;;;;;;6221715;23;20079;-89
2021/12/31 14:39:38;;;;;;;16.20;6.35;;;;;;;;;;6221952;23;20380;-92
2021/12/31 14:42:05;;;;;;;21.92;5.68;;;;;;;;;;6246801;23;20026;-92
2021/12/31 14:44:31;;;;;;;15.93;4.00;;;;;;;;;;6246276;23;20016;-91
2021/12/31 14:46:57;;;;;;;14.93;5.57;;;;;;;;;;6222003;23;20046;-91
2021/12/31 14:49:24;;;;;;;15.02;5.57;;;;;;;;;;6246571;23;20020;-91
2021/12/31 14:51:51;;;;;;;10.55;4.60;;;;;;;;;;6246978;23;20016;-94